Time;durP1;ratioP1;P1;durP2;ratioP2;P2;SDS_P1;SDS_P2;PMS_P1;PMS_P2;Temp;Humidity;BMP_temperature;BMP_pressure;BME280_temperature;BME280_humidity;BME280_pressure;Samples;Min_cycle;Max_cycle;Signal;HPM_P1;HPM_P2
2022/11/23 00:06:03;;;;;;;4.53;4.00;;;;;8.40;97603.00;;;;16584149;28;20234;-48
2022/11/23 00:14:06;;;;;;;5.07;3.00;;;;;8.70;97592.00;;;;16586231;28;20194;-48
2022/11/23 00:22:09;;;;;;;5.83;2.83;;;;;8.70;97602.00;;;;16597304;28;20227;-48
2022/11/23 00:30:14;;;;;;;6.07;2.87;;;;;8.90;97597.00;;;;16601846;28;20640;-49
2022/11/23 00:38:17;;;;;;;4.20;2.60;;;;;9.00;97599.00;;;;16596348;28;20230;-48
2022/11/23 00:46:23;;;;;;;4.07;3.40;;;;;8.10;97614.00;;;;16592043;28;20235;-46
2022/11/23 00:54:25;;;;;;;5.00;4.27;;;;;8.70;97603.00;;;;16588173;28;20204;-46
2022/11/23 01:02:29;;;;;;;4.90;3.30;;;;;9.10;97580.00;;;;16587880;28;20241;-47
2022/11/23 01:10:32;;;;;;;5.47;3.00;;;;;9.30;97592.00;;;;16588936;28;20230;-46
2022/11/23 01:18:36;;;;;;;5.50;3.10;;;;;9.10;97596.00;;;;16586272;28;20227;-45
2022/11/23 01:26:39;;;;;;;7.60;3.90;;;;;8.30;97616.00;;;;16586966;28;20234;-46
2022/11/23 01:34:43;;;;;;;5.27;3.23;;;;;8.40;97605.00;;;;16584828;28;20199;-46
2022/11/23 01:42:52;;;;;;;5.53;3.23;;;;;8.20;97610.00;;;;16586136;28;20225;-45
2022/11/23 01:50:58;;;;;;;4.37;3.97;;;;;8.10;97613.00;;;;16590999;28;20225;-46
2022/11/23 01:59:04;;;;;;;7.30;3.37;;;;;8.00;97619.00;;;;16584154;28;20227;-45
2022/11/23 02:07:08;;;;;;;13.03;4.87;;;;;8.20;97626.00;;;;16582941;28;20230;-45
2022/11/23 02:15:11;;;;;;;6.70;5.20;;;;;7.80;97644.00;;;;16583113;28;20221;-45
2022/11/23 02:23:24;;;;;;;5.23;4.43;;;;;7.70;97639.00;;;;16582594;28;20571;-46
2022/11/23 02:31:28;;;;;;;13.67;5.53;;;;;7.90;97633.00;;;;16595178;28;20222;-46
2022/11/23 02:39:32;;;;;;;6.97;4.50;;;;;7.80;97639.00;;;;16581653;28;20234;-46
2022/11/23 02:47:36;;;;;;;6.73;4.80;;;;;7.70;97649.00;;;;16581997;28;20250;-45
2022/11/23 02:55:39;;;;;;;7.60;4.60;;;;;7.70;97649.00;;;;16580754;28;20347;-46
2022/11/23 03:03:43;;;;;;;5.80;4.10;;;;;7.70;97651.00;;;;16581027;28;20223;-46
2022/11/23 03:11:45;;;;;;;7.30;4.30;;;;;7.40;97649.00;;;;16580576;28;20219;-45
2022/11/23 03:19:50;;;;;;;7.80;3.73;;;;;7.40;97652.00;;;;16580098;28;20226;-46
2022/11/23 03:27:53;;;;;;;6.47;4.50;;;;;7.50;97649.00;;;;16580991;28;20233;-45
2022/11/23 03:35:58;;;;;;;8.37;4.17;;;;;7.60;97660.00;;;;16579805;28;20317;-47
2022/11/23 03:44:05;;;;;;;8.50;4.53;;;;;7.80;97655.00;;;;16580662;28;20237;-46
2022/11/23 03:52:09;;;;;;;7.17;3.90;;;;;7.90;97655.00;;;;16579726;28;20314;-47
2022/11/23 04:00:13;;;;;;;7.07;3.93;;;;;8.10;97643.00;;;;16604742;28;20765;-46
2022/11/23 04:08:17;;;;;;;6.17;3.83;;;;;8.00;97632.00;;;;16615478;28;20314;-46
2022/11/23 04:16:20;;;;;;;10.33;5.40;;;;;7.90;97626.00;;;;16621160;28;20226;-46
2022/11/23 04:24:24;;;;;;;9.00;4.90;;;;;7.50;97628.00;;;;16598630;28;20247;-46
2022/11/23 04:32:30;;;;;;;6.70;3.70;;;;;7.60;97626.00;;;;16595837;28;20729;-45
2022/11/23 04:40:34;;;;;;;5.90;4.03;;;;;7.70;97626.00;;;;16595853;28;20708;-45
2022/11/23 04:48:38;;;;;;;5.63;4.57;;;;;7.60;97627.00;;;;16590973;28;20309;-46
2022/11/23 04:56:42;;;;;;;4.47;3.80;;;;;7.80;97638.00;;;;16587776;28;20722;-46
2022/11/23 05:04:46;;;;;;;6.77;4.07;;;;;7.80;97633.00;;;;16592334;28;20802;-46
2022/11/23 05:12:51;;;;;;;7.10;4.20;;;;;7.70;97621.00;;;;16588932;28;20238;-47
2022/11/23 05:20:53;;;;;;;5.10;3.70;;;;;8.10;97632.00;;;;16587546;28;20365;-48
2022/11/23 05:28:58;;;;;;;5.30;3.63;;;;;8.20;97616.00;;;;16598348;28;20364;-48
2022/11/23 05:37:02;;;;;;;4.10;3.37;;;;;7.90;97609.00;;;;16600075;28;20226;-48
2022/11/23 05:45:07;;;;;;;5.00;3.70;;;;;8.30;97610.00;;;;16593092;28;20892;-48
2022/11/23 05:53:17;;;;;;;5.83;4.00;;;;;8.40;97607.00;;;;16598055;28;20597;-47
2022/11/23 06:01:24;;;;;;;5.70;4.27;;;;;8.20;97615.00;;;;16622768;28;20396;-47
2022/11/23 06:09:29;;;;;;;5.63;4.43;;;;;8.00;97606.00;;;;16606640;28;20229;-47
2022/11/23 06:17:40;;;;;;;14.80;11.27;;;;;7.50;97614.00;;;;16602289;28;20230;-46
2022/11/23 06:25:48;;;;;;;6.87;3.93;;;;;7.90;97618.00;;;;16606663;28;20222;-49
2022/11/23 06:33:58;;;;;;;13.33;6.37;;;;;8.30;97610.00;;;;16609593;28;20691;-48
2022/11/23 06:42:00;;;;;;;8.20;4.87;;;;;7.80;97607.00;;;;16602513;28;20238;-48
2022/11/23 06:50:05;;;;;;;9.43;5.47;;;;;8.10;97619.00;;;;16593273;28;20226;-47
2022/11/23 06:58:08;;;;;;;7.70;4.53;;;;;7.90;97630.00;;;;16593837;28;20307;-48
2022/11/23 07:06:12;;;;;;;7.77;4.50;;;;;7.90;97640.00;;;;16603847;28;20248;-47
2022/11/23 07:14:17;;;;;;;5.30;4.47;;;;;8.00;97647.00;;;;16581137;28;20206;-49
2022/11/23 07:22:24;;;;;;;6.77;5.03;;;;;7.90;97652.00;;;;16580988;28;20226;-48
2022/11/23 07:30:29;;;;;;;10.60;5.13;;;;;8.00;97658.00;;;;16599131;28;20226;-47
2022/11/23 07:38:33;;;;;;;7.73;5.67;;;;;7.80;97659.00;;;;16605970;28;20236;-49
2022/11/23 07:46:37;;;;;;;7.60;5.43;;;;;7.90;97662.00;;;;16608763;28;20244;-47
2022/11/23 07:54:41;;;;;;;8.63;5.67;;;;;7.90;97673.00;;;;16602964;28;20229;-46
2022/11/23 08:02:43;;;;;;;7.40;5.40;;;;;7.80;97673.00;;;;16595028;28;20300;-46
2022/11/23 08:10:47;;;;;;;5.33;4.83;;;;;7.90;97673.00;;;;16605016;28;20246;-47
2022/11/23 08:18:50;;;;;;;12.13;5.83;;;;;8.00;97668.00;;;;16600455;28;20305;-46
2022/11/23 08:26:54;;;;;;;9.60;5.77;;;;;8.50;97669.00;;;;16586379;28;20257;-45
2022/11/23 08:34:57;;;;;;;10.23;5.67;;;;;9.20;97667.00;;;;16595705;28;20218;-47
2022/11/23 08:43:00;;;;;;;9.73;5.67;;;;;9.60;97654.00;;;;16608626;28;20318;-47
2022/11/23 08:51:03;;;;;;;6.60;4.30;;;;;9.80;97648.00;;;;16592906;28;20729;-46
2022/11/23 08:59:08;;;;;;;8.30;7.30;;;;;10.40;97649.00;;;;16593689;28;20272;-46
2022/11/23 09:07:10;;;;;;;9.00;5.50;;;;;10.60;97652.00;;;;16621228;28;20663;-47
2022/11/23 09:15:14;;;;;;;6.43;4.80;;;;;10.50;97652.00;;;;16629675;28;20277;-46
2022/11/23 09:23:17;;;;;;;5.20;3.80;;;;;11.00;97648.00;;;;16617619;28;20232;-48
2022/11/23 09:31:22;;;;;;;6.80;4.43;;;;;11.50;97643.00;;;;16621854;28;20224;-47
2022/11/23 09:39:25;;;;;;;6.37;4.03;;;;;11.80;97641.00;;;;16605650;28;20229;-46
2022/11/23 09:47:38;;;;;;;9.30;4.07;;;;;12.00;97633.00;;;;16600727;28;20734;-47
2022/11/23 09:55:43;;;;;;;5.43;4.13;;;;;12.40;97625.00;;;;16602651;28;20642;-47
2022/11/23 10:03:47;;;;;;;9.80;4.27;;;;;12.30;97625.00;;;;16601992;28;20280;-48
2022/11/23 10:12:08;;;;;;;5.03;3.97;;;;;12.90;97610.00;;;;16608321;28;20222;-48
2022/11/23 10:20:25;;;;;;;8.27;4.60;;;;;13.60;97604.00;;;;16603953;28;20856;-48
2022/11/23 10:28:31;;;;;;;9.50;5.30;;;;;13.70;97593.00;;;;16593363;28;20237;-49
2022/11/23 10:36:37;;;;;;;5.83;3.20;;;;;14.20;97586.00;;;;16599055;28;20610;-47
2022/11/23 10:44:41;;;;;;;4.30;3.70;;;;;14.40;97584.00;;;;16597991;28;20223;-48
2022/11/23 10:52:51;;;;;;;3.37;2.10;;;;;14.60;97579.00;;;;16607135;28;20585;-49
2022/11/23 11:01:00;;;;;;;3.67;2.40;;;;;14.60;97580.00;;;;16615362;28;20670;-48
2022/11/23 11:09:06;;;;;;;3.00;2.40;;;;;15.00;97560.00;;;;16605758;28;20251;-47
2022/11/23 11:17:26;;;;;;;3.43;2.30;;;;;15.70;97557.00;;;;16603219;28;20697;-48
2022/11/23 11:25:33;;;;;;;3.50;2.30;;;;;15.70;97549.00;;;;16595930;28;20221;-48
2022/11/23 11:33:40;;;;;;;4.00;2.40;;;;;16.80;97543.00;;;;16604969;28;20210;-48
2022/11/23 11:41:45;;;;;;;7.87;2.77;;;;;16.50;97537.00;;;;16618955;28;20234;-48
2022/11/23 11:49:49;;;;;;;3.30;2.40;;;;;17.00;97519.00;;;;16613504;28;20215;-48
2022/11/23 11:57:56;;;;;;;2.70;2.10;;;;;17.80;97515.00;;;;16598182;28;20227;-48
2022/11/23 12:06:04;;;;;;;2.70;2.10;;;;;18.10;97509.00;;;;16594310;28;20231;-49
2022/11/23 12:14:12;;;;;;;2.40;1.90;;;;;18.00;97495.00;;;;16587303;28;20206;-48
2022/11/23 12:22:32;;;;;;;3.13;1.37;;;;;17.90;97483.00;;;;16618410;28;20302;-49
2022/11/23 12:30:41;;;;;;;2.40;1.40;;;;;17.50;97481.00;;;;16595402;28;20235;-49
2022/11/23 12:38:54;;;;;;;2.60;1.20;;;;;17.80;97486.00;;;;16595522;28;20238;-48
2022/11/23 12:47:01;;;;;;;3.20;1.43;;;;;18.30;97478.00;;;;16603851;28;20242;-48
2022/11/23 12:55:13;;;;;;;2.93;1.27;;;;;17.70;97471.00;;;;16635823;28;20805;-47
2022/11/23 13:03:55;;;;;;;1.77;1.10;;;;;17.40;97473.00;;;;16622032;28;20223;-48
2022/11/23 13:12:29;;;;;;;3.20;1.50;;;;;17.70;97469.00;;;;16638316;28;20266;-48
2022/11/23 13:20:49;;;;;;;2.67;1.40;;;;;18.50;97468.00;;;;16633221;28;20266;-50
2022/11/23 13:28:53;;;;;;;4.37;1.20;;;;;18.50;97450.00;;;;16632271;28;20644;-45
2022/11/23 13:37:01;;;;;;;3.73;1.47;;;;;18.30;97455.00;;;;16629309;28;20218;-45
2022/11/23 13:45:27;;;;;;;1.70;1.50;;;;;17.90;97437.00;;;;16626514;28;20330;-45
2022/11/23 13:53:33;;;;;;;2.23;1.30;;;;;16.60;97431.00;;;;16633762;28;20226;-47
2022/11/23 14:02:03;;;;;;;4.60;1.83;;;;;15.80;97425.00;;;;16630220;28;20223;-47
2022/11/23 14:10:17;;;;;;;2.73;1.63;;;;;15.30;97425.00;;;;16637803;28;20217;-45
2022/11/23 14:18:39;;;;;;;3.03;1.73;;;;;15.10;97412.00;;;;16632024;28;20218;-47
2022/11/23 14:26:53;;;;;;;2.77;1.60;;;;;14.90;97413.00;;;;16629057;28;20317;-46
2022/11/23 14:35:18;;;;;;;1.30;1.20;;;;;14.50;97408.00;;;;16626381;28;20202;-46
2022/11/23 14:43:22;;;;;;;2.73;1.80;;;;;14.30;97411.00;;;;16629655;28;20405;-45
2022/11/23 14:51:26;;;;;;;3.30;1.80;;;;;14.10;97388.00;;;;16631870;28;20218;-45
2022/11/23 14:59:32;;;;;;;2.40;1.30;;;;;13.90;97391.00;;;;16611704;28;20262;-45
2022/11/23 15:07:48;;;;;;;3.00;1.20;;;;;13.70;97387.00;;;;16595800;28;20644;-45
2022/11/23 15:15:54;;;;;;;4.03;1.40;;;;;13.30;97379.00;;;;16593073;28;20219;-45
2022/11/23 15:23:58;;;;;;;1.43;1.33;;;;;13.20;97382.00;;;;16622730;28;20229;-45
2022/11/23 15:32:03;;;;;;;2.37;2.00;;;;;13.00;97386.00;;;;16589047;28;20727;-45
2022/11/23 15:40:11;;;;;;;2.67;2.00;;;;;13.00;97389.00;;;;16599806;28;20264;-45
2022/11/23 15:48:17;;;;;;;2.10;1.90;;;;;13.00;97384.00;;;;16609941;28;20237;-45
2022/11/23 15:56:23;;;;;;;7.27;4.00;;;;;12.90;97402.00;;;;16605033;28;20222;-45
2022/11/23 16:04:29;;;;;;;3.97;3.33;;;;;12.80;97395.00;;;;16604033;28;20230;-46
2022/11/23 16:12:34;;;;;;;7.27;5.43;;;;;12.40;97415.00;;;;16603978;28;20755;-45
2022/11/23 16:20:43;;;;;;;3.40;2.90;;;;;12.40;97436.00;;;;16604044;28;20406;-45
2022/11/23 16:28:50;;;;;;;8.60;6.37;;;;;12.10;97438.00;;;;16621856;28;20224;-46
2022/11/23 16:36:55;;;;;;;6.30;3.00;;;;;12.50;97452.00;;;;16610732;28;20297;-46
2022/11/23 16:44:58;;;;;;;10.50;6.67;;;;;11.50;97468.00;;;;16607373;28;20702;-46
2022/11/23 16:53:09;;;;;;;9.17;7.40;;;;;10.40;97509.00;;;;16594559;28;20219;-46
2022/11/23 17:01:19;;;;;;;16.13;13.70;;;;;10.60;97540.00;;;;16614128;28;20732;-44
2022/11/23 17:09:23;;;;;;;18.67;16.90;;;;;11.20;97549.00;;;;16624285;28;20235;-45
2022/11/23 17:17:25;;;;;;;5.80;4.80;;;;;11.00;97574.00;;;;16613355;28;20232;-46
2022/11/23 17:25:29;;;;;;;10.63;2.90;;;;;11.90;97580.00;;;;16614485;28;20232;-46
2022/11/23 17:33:32;;;;;;;8.73;7.83;;;;;12.10;97575.00;;;;16602829;28;20805;-46
2022/11/23 17:41:36;;;;;;;2.83;2.50;;;;;12.10;97602.00;;;;16601922;28;20251;-46
2022/11/23 17:49:39;;;;;;;5.37;1.90;;;;;12.00;97612.00;;;;16591084;28;20229;-46
2022/11/23 17:57:43;;;;;;;4.57;3.23;;;;;12.30;97623.00;;;;16597520;28;20706;-46
2022/11/23 18:05:45;;;;;;;3.53;2.63;;;;;11.90;97644.00;;;;16597566;28;20285;-46
2022/11/23 18:13:50;;;;;;;2.43;2.23;;;;;12.00;97640.00;;;;16603107;28;20701;-46
2022/11/23 18:21:52;;;;;;;8.80;2.77;;;;;12.00;97646.00;;;;16598755;28;20223;-46
2022/11/23 18:29:56;;;;;;;2.63;2.43;;;;;11.50;97655.00;;;;16633849;28;20235;-46
2022/11/23 18:37:59;;;;;;;3.67;2.70;;;;;11.30;97673.00;;;;16620239;28;20226;-46
2022/11/23 18:46:05;;;;;;;3.43;2.57;;;;;11.20;97684.00;;;;16608171;28;20227;-46
2022/11/23 18:54:08;;;;;;;4.13;3.40;;;;;11.30;97694.00;;;;16604984;28;20203;-46
2022/11/23 19:02:12;;;;;;;4.33;2.80;;;;;11.10;97691.00;;;;16588577;28;20235;-46
2022/11/23 19:10:15;;;;;;;4.73;2.90;;;;;11.00;97704.00;;;;16585483;28;20792;-45
2022/11/23 19:18:19;;;;;;;5.60;3.90;;;;;11.10;97720.00;;;;16602931;28;20616;-47
2022/11/23 19:26:22;;;;;;;3.37;3.07;;;;;11.20;97733.00;;;;16627046;28;20592;-46
2022/11/23 19:34:25;;;;;;;19.60;10.37;;;;;11.60;97746.00;;;;16637537;28;20211;-46
2022/11/23 19:42:28;;;;;;;4.47;3.00;;;;;11.50;97772.00;;;;16637592;28;20350;-46
2022/11/23 19:50:32;;;;;;;7.50;4.10;;;;;11.70;97781.00;;;;16620549;28;20227;-47
2022/11/23 19:58:34;;;;;;;6.30;3.90;;;;;11.50;97801.00;;;;16640596;28;20247;-46
2022/11/23 20:06:41;;;;;;;6.03;4.20;;;;;11.70;97816.00;;;;16618888;28;20716;-46
2022/11/23 20:14:43;;;;;;;4.53;3.87;;;;;11.80;97815.00;;;;16623015;28;20227;-46
2022/11/23 20:22:47;;;;;;;3.90;3.60;;;;;11.80;97852.00;;;;16613745;28;20226;-46
2022/11/23 20:30:50;;;;;;;8.60;5.60;;;;;11.10;97871.00;;;;16602932;28;20224;-46
2022/11/23 20:38:54;;;;;;;9.60;7.20;;;;;11.70;97892.00;;;;16612474;28;20232;-47
2022/11/23 20:46:57;;;;;;;6.40;4.67;;;;;11.40;97916.00;;;;16609471;28;20243;-46
2022/11/23 20:55:01;;;;;;;6.00;4.87;;;;;11.30;97942.00;;;;16632256;28;20195;-46
2022/11/23 21:03:04;;;;;;;8.80;4.53;;;;;11.30;97963.00;;;;16636713;28;20293;-46
2022/11/23 21:19:32;;;;;;;6.23;2.40;;;;;11.30;97990.00;;;;16631261;28;20210;-46
2022/11/23 21:27:35;;;;;;;6.43;3.20;;;;;12.00;97991.00;;;;16620305;28;20286;-47
2022/11/23 21:35:38;;;;;;;6.73;2.77;;;;;11.70;98006.00;;;;16625561;28;20295;-46
2022/11/23 21:43:44;;;;;;;5.80;3.10;;;;;11.10;98031.00;;;;16636601;28;20306;-46
2022/11/23 21:51:47;;;;;;;5.20;3.00;;;;;10.50;98046.00;;;;16629067;28;20319;-46
2022/11/23 21:59:50;;;;;;;7.20;3.17;;;;;10.00;98080.00;;;;16639388;28;20277;-46
2022/11/23 22:07:53;;;;;;;10.10;4.27;;;;;9.90;98090.00;;;;16634368;28;20767;-44
2022/11/23 22:15:57;;;;;;;9.23;3.90;;;;;10.60;98100.00;;;;16612028;28;20588;-45
2022/11/23 22:24:00;;;;;;;9.60;3.90;;;;;9.90;98114.00;;;;16591410;28;20231;-46
2022/11/23 22:32:05;;;;;;;10.33;5.40;;;;;9.50;98133.00;;;;16600243;28;20294;-46
2022/11/23 22:40:09;;;;;;;18.50;12.10;;;;;9.50;98133.00;;;;16602841;28;20234;-47
2022/11/23 22:48:13;;;;;;;10.53;3.93;;;;;9.20;98154.00;;;;16594854;28;20227;-46
2022/11/23 22:56:17;;;;;;;12.93;9.23;;;;;9.20;98162.00;;;;16600013;28;20222;-47
2022/11/23 23:04:21;;;;;;;12.40;4.20;;;;;8.90;98170.00;;;;16604306;28;20218;-46
2022/11/23 23:12:24;;;;;;;12.63;4.70;;;;;8.80;98180.00;;;;16601835;28;20718;-47
2022/11/23 23:20:28;;;;;;;5.70;4.17;;;;;8.90;98198.00;;;;16589616;28;20230;-47
2022/11/23 23:28:30;;;;;;;8.00;4.50;;;;;8.90;98208.00;;;;16603162;28;20229;-46
2022/11/23 23:36:36;;;;;;;14.27;7.03;;;;;8.70;98219.00;;;;16600678;28;20237;-46
2022/11/23 23:44:39;;;;;;;13.47;7.40;;;;;8.60;98227.00;;;;16601245;28;20218;-46
2022/11/23 23:52:43;;;;;;;12.47;5.03;;;;;8.60;98230.00;;;;16598511;28;20713;-46
